Kinmount, Canada
Current Conditions -  °F | °C
As of 6:00 PM on Friday 28 Nov 2014 (Local Time) from CYQA Reporting Station
Overcast Overcast  
Wind Chill: -7°   Ceiling: 2900
Heat Index: -7°   Visibility: 9mi
Dew Point: -12°   Wind: 0mph
Humidity: 68%   Direction: NA
Pressure: 30.15"   Gusts: NA
Location:  44.78°N, 78.65°W
Report Text: CYQA 282300Z AUTO 00000KT 9SM BKN029 OVC034 M07/M12 A3015 RMK SLP229
Loading
Personal Weather Stations






























Interactive Weather Map New forecast layout! Learn more

10-Day Weather Forecast

Advertisements
Track Severe Weather on mobile